createdAt,value
2018-12-29T00:00:23.741Z,4.79
2018-12-29T00:02:55.975Z,4.19
2018-12-29T00:05:26.089Z,3.59
2018-12-29T00:07:55.229Z,3.78
2018-12-29T00:10:24.323Z,4.00
2018-12-29T00:12:54.139Z,3.91
2018-12-29T00:15:24.657Z,3.60
2018-12-29T00:17:53.876Z,3.96
2018-12-29T00:20:27.246Z,4.37
2018-12-29T00:23:00.917Z,3.87
2018-12-29T00:25:37.374Z,3.57
2018-12-29T00:28:09.411Z,3.23
2018-12-29T00:30:41.643Z,3.78
2018-12-29T00:33:10.774Z,3.36
2018-12-29T00:35:39.887Z,3.96
2018-12-29T00:38:08.965Z,4.68
2018-12-29T00:40:40.091Z,4.35
2018-12-29T00:43:08.956Z,3.80
2018-12-29T00:45:42.629Z,3.95
2018-12-29T00:48:15.563Z,3.93
2018-12-29T00:50:45.935Z,3.66
2018-12-29T00:53:17.784Z,3.85
2018-12-29T00:55:49.515Z,4.24
2018-12-29T00:58:23.900Z,4.01
2018-12-29T01:00:54.713Z,4.08
2018-12-29T01:03:24.927Z,4.49
2018-12-29T01:05:55.922Z,4.48
2018-12-29T01:08:28.502Z,4.66
2018-12-29T01:10:57.699Z,4.17
2018-12-29T01:13:26.920Z,4.53
2018-12-29T01:15:58.807Z,4.27
2018-12-29T01:18:27.904Z,4.67
2018-12-29T01:20:57.105Z,4.71
2018-12-29T01:23:28.240Z,4.43
2018-12-29T01:26:00.023Z,4.23
2018-12-29T01:28:29.163Z,4.63
2018-12-29T01:31:03.088Z,4.78
2018-12-29T01:33:32.220Z,5.21
2018-12-29T01:36:01.356Z,5.18
2018-12-29T01:38:31.954Z,5.66
2018-12-29T01:41:01.139Z,5.07
2018-12-29T01:43:33.394Z,5.75
2018-12-29T01:46:04.522Z,6.12
2018-12-29T01:48:33.629Z,5.98
2018-12-29T01:51:02.749Z,6.14
2018-12-29T01:53:32.236Z,5.66
2018-12-29T01:56:03.252Z,5.07
2018-12-29T01:58:34.947Z,5.20
2018-12-29T02:01:05.648Z,4.71
2018-12-29T02:03:38.055Z,4.54
2018-12-29T02:06:07.220Z,4.87
2018-12-29T02:08:37.935Z,4.10
2018-12-29T02:11:07.177Z,4.35
2018-12-29T02:13:36.266Z,4.21
2018-12-29T02:16:07.820Z,4.53
2018-12-29T02:18:36.289Z,4.84
2018-12-29T02:21:05.470Z,4.38
2018-12-29T02:23:36.038Z,4.01
2018-12-29T02:26:07.557Z,3.83
2018-12-29T02:28:37.029Z,4.32
2018-12-29T02:31:09.065Z,3.97
2018-12-29T02:33:39.384Z,4.02
2018-12-29T02:36:08.819Z,4.97
2018-12-29T02:38:37.907Z,4.41
2018-12-29T02:41:08.418Z,4.81
2018-12-29T02:43:37.493Z,4.56
2018-12-29T02:46:06.752Z,4.14
2018-12-29T02:48:40.460Z,4.29
2018-12-29T02:51:09.573Z,4.21
2018-12-29T02:53:38.671Z,4.69
2018-12-29T02:56:11.252Z,4.06
2018-12-29T02:58:41.150Z,3.58
2018-12-29T03:01:10.347Z,3.57
2018-12-29T03:03:39.538Z,3.55
2018-12-29T03:06:08.633Z,3.35
2018-12-29T03:08:37.721Z,3.66
2018-12-29T03:11:08.670Z,3.74
2018-12-29T03:13:39.461Z,3.25
2018-12-29T03:16:08.498Z,3.15
2018-12-29T03:18:42.173Z,3.41
2018-12-29T03:21:12.906Z,4.18
2018-12-29T03:23:41.988Z,3.94
2018-12-29T03:26:12.706Z,4.10
2018-12-29T03:28:42.207Z,3.48
2018-12-29T03:31:12.568Z,3.92
2018-12-29T03:33:41.660Z,3.70
2018-12-29T03:36:12.952Z,2.68
2018-12-29T03:38:48.240Z,3.18
2018-12-29T03:41:17.366Z,2.71
2018-12-29T03:43:46.464Z,2.56
2018-12-29T03:46:16.536Z,2.52
2018-12-29T03:48:45.676Z,2.03
2018-12-29T03:51:15.791Z,2.40
2018-12-29T03:54:05.577Z,2.33
2018-12-29T03:56:34.728Z,2.33
2018-12-29T03:59:04.143Z,2.06
2018-12-29T04:01:34.754Z,2.08
2018-12-29T04:04:03.894Z,2.12
2018-12-29T04:06:33.461Z,-8.47
2018-12-29T04:09:36.792Z,2.35
2018-12-29T04:12:20.313Z,2.02
2018-12-29T04:14:49.411Z,2.25
2018-12-29T04:17:19.504Z,2.48
2018-12-29T04:19:49.964Z,2.71
2018-12-29T04:22:19.111Z,2.39
2018-12-29T04:24:54.415Z,2.67
2018-12-29T04:27:23.508Z,2.63
2018-12-29T04:29:52.627Z,2.66
2018-12-29T04:32:22.606Z,2.48
2018-12-29T04:34:52.405Z,2.43
2018-12-29T04:37:26.222Z,2.47
2018-12-29T04:39:55.477Z,2.27
2018-12-29T04:42:30.844Z,1.69
2018-12-29T04:44:59.946Z,1.79
2018-12-29T04:47:29.038Z,2.07
2018-12-29T04:50:04.016Z,1.85
2018-12-29T04:52:33.229Z,2.19
2018-12-29T04:55:04.116Z,1.89
2018-12-29T04:57:33.222Z,1.81
2018-12-29T05:00:02.324Z,1.56
2018-12-29T05:02:31.514Z,1.87
2018-12-29T05:05:00.628Z,2.29
2018-12-29T05:07:30.148Z,2.06
2018-12-29T05:09:59.251Z,2.07
2018-12-29T05:12:31.577Z,1.92
2018-12-29T05:15:00.674Z,2.58
2018-12-29T05:17:29.771Z,2.25
2018-12-29T05:20:01.128Z,2.29
2018-12-29T05:22:32.118Z,2.30
2018-12-29T05:25:02.587Z,2.30
2018-12-29T05:27:37.472Z,2.60
2018-12-29T05:30:09.260Z,2.42
2018-12-29T05:32:41.065Z,1.98
2018-12-29T05:35:12.376Z,2.01
2018-12-29T05:37:44.144Z,2.18
2018-12-29T05:40:13.686Z,2.02
2018-12-29T05:42:45.291Z,2.47
2018-12-29T05:45:14.413Z,2.44
2018-12-29T05:47:43.512Z,1.91
2018-12-29T05:50:12.675Z,2.16
2018-12-29T05:52:41.749Z,2.00
2018-12-29T05:55:11.830Z,2.29
2018-12-29T05:57:41.711Z,2.29
2018-12-29T06:00:12.186Z,2.43
2018-12-29T06:02:42.772Z,2.14
2018-12-29T06:05:11.920Z,2.52
2018-12-29T06:07:41.000Z,2.35
2018-12-29T06:10:10.218Z,2.70
2018-12-29T06:12:40.308Z,3.33
2018-12-29T06:15:09.401Z,3.74
2018-12-29T06:17:38.475Z,4.20
2018-12-29T06:20:09.506Z,4.31
2018-12-29T06:22:39.808Z,3.84
2018-12-29T06:25:09.230Z,4.02
2018-12-29T06:27:38.371Z,4.08
2018-12-29T06:30:10.886Z,4.22
2018-12-29T06:32:42.601Z,4.13
2018-12-29T06:35:13.011Z,4.16
2018-12-29T06:37:42.085Z,3.90
2018-12-29T06:40:11.208Z,3.26
2018-12-29T06:42:42.107Z,2.81
2018-12-29T06:45:11.221Z,2.82
2018-12-29T06:47:40.351Z,3.41
2018-12-29T06:50:11.965Z,2.91
2018-12-29T06:52:41.070Z,3.16
2018-12-29T06:55:10.245Z,2.58
2018-12-29T06:57:39.338Z,3.05
2018-12-29T07:00:09.860Z,3.23
2018-12-29T07:02:39.026Z,3.35
2018-12-29T07:05:08.319Z,3.04
2018-12-29T07:07:38.624Z,2.82
2018-12-29T07:10:09.218Z,3.20
2018-12-29T07:12:38.394Z,2.90
2018-12-29T07:15:07.523Z,2.57
2018-12-29T07:17:36.667Z,2.53
2018-12-29T07:20:06.646Z,3.15
2018-12-29T07:22:35.767Z,3.16
2018-12-29T07:25:05.791Z,4.14
2018-12-29T07:27:34.891Z,4.54
2018-12-29T07:30:03.989Z,3.47
2018-12-29T07:32:33.221Z,2.92
2018-12-29T07:35:03.401Z,3.18
2018-12-29T07:37:32.509Z,3.83
2018-12-29T07:40:01.594Z,3.66
2018-12-29T07:42:34.106Z,3.14
2018-12-29T07:45:03.238Z,3.26
2018-12-29T07:47:33.213Z,2.71
2018-12-29T07:50:02.409Z,2.38
2018-12-29T07:52:31.745Z,2.83
2018-12-29T07:55:05.146Z,2.96
2018-12-29T07:57:34.310Z,2.99
2018-12-29T08:00:05.307Z,2.95
2018-12-29T08:02:34.873Z,2.86
2018-12-29T08:05:06.786Z,3.24
2018-12-29T08:07:35.895Z,3.87
2018-12-29T08:10:05.591Z,3.90
2018-12-29T08:12:40.677Z,3.70
2018-12-29T08:15:11.013Z,3.65
2018-12-29T08:17:40.108Z,3.16
2018-12-29T08:20:09.277Z,3.28
2018-12-29T08:22:38.457Z,2.95
2018-12-29T08:25:12.290Z,3.15
2018-12-29T08:27:41.375Z,3.33
2018-12-29T08:30:11.624Z,3.39
2018-12-29T08:32:41.138Z,3.09
2018-12-29T08:35:13.187Z,2.96
2018-12-29T08:37:45.280Z,3.72
2018-12-29T08:40:14.485Z,3.88
2018-12-29T08:42:43.574Z,3.84
2018-12-29T08:45:12.711Z,3.34
2018-12-29T08:47:41.803Z,3.82
2018-12-29T08:50:13.536Z,3.82
2018-12-29T08:52:42.843Z,4.06
2018-12-29T08:55:11.946Z,4.09
2018-12-29T08:57:42.492Z,3.98
2018-12-29T09:00:17.954Z,3.87
2018-12-29T09:02:47.154Z,4.59
2018-12-29T09:05:18.287Z,4.48
2018-12-29T09:07:47.718Z,4.61
2018-12-29T09:10:16.856Z,4.51
2018-12-29T09:12:46.862Z,4.29
2018-12-29T09:15:17.846Z,4.19
2018-12-29T09:17:46.951Z,3.82
2018-12-29T09:20:16.106Z,4.04
2018-12-29T09:22:46.885Z,4.55
2018-12-29T09:25:17.561Z,4.96
2018-12-29T09:27:46.762Z,4.77
2018-12-29T09:30:15.839Z,4.58
2018-12-29T09:32:46.771Z,4.66
2018-12-29T09:35:15.833Z,4.18
2018-12-29T09:37:45.013Z,4.14
2018-12-29T09:40:16.238Z,4.20
2018-12-29T09:42:46.687Z,4.65
2018-12-29T09:45:20.431Z,3.76
2018-12-29T09:47:51.872Z,4.24
2018-12-29T09:50:21.049Z,5.25
2018-12-29T09:52:50.274Z,6.17
2018-12-29T09:55:19.414Z,5.79
2018-12-29T09:57:48.564Z,5.42
2018-12-29T10:00:21.222Z,6.07
2018-12-29T10:02:50.812Z,5.78
2018-12-29T10:05:19.905Z,6.02
2018-12-29T10:07:49.008Z,5.54
2018-12-29T10:10:19.307Z,6.34
2018-12-29T10:12:53.211Z,6.43
2018-12-29T10:15:26.202Z,5.65
2018-12-29T10:17:56.898Z,6.01
2018-12-29T10:20:26.026Z,6.47
2018-12-29T10:22:55.154Z,6.07
2018-12-29T10:25:26.398Z,6.20
2018-12-29T10:27:57.310Z,6.42
2018-12-29T10:30:27.576Z,6.66
2018-12-29T10:32:57.259Z,5.90
2018-12-29T10:35:26.425Z,6.08
2018-12-29T10:37:55.530Z,6.64
2018-12-29T10:40:26.514Z,6.26
2018-12-29T10:42:55.764Z,6.57
2018-12-29T10:45:24.899Z,6.66
2018-12-29T10:47:54.009Z,6.60
2018-12-29T10:50:29.276Z,6.29
2018-12-29T10:53:00.231Z,6.39
2018-12-29T10:55:30.339Z,6.84
2018-12-29T10:57:59.431Z,6.56
2018-12-29T11:00:35.384Z,6.32
2018-12-29T11:03:04.650Z,5.91
2018-12-29T11:05:36.204Z,6.02
2018-12-29T11:08:05.445Z,6.66
2018-12-29T11:10:36.738Z,6.66
2018-12-29T11:13:08.347Z,6.65
2018-12-29T11:15:41.286Z,6.72
2018-12-29T11:18:10.432Z,7.19
2018-12-29T11:20:43.350Z,7.50
2018-12-29T11:23:18.573Z,7.05
2018-12-29T11:25:48.103Z,6.39
2018-12-29T11:28:19.271Z,6.81
2018-12-29T11:30:48.766Z,6.61
2018-12-29T11:33:17.894Z,7.25
2018-12-29T11:35:47.845Z,7.24
2018-12-29T11:38:16.987Z,6.91
2018-12-29T11:40:47.535Z,6.30
2018-12-29T11:43:19.778Z,7.00
2018-12-29T11:45:57.649Z,7.57
2018-12-29T11:48:29.728Z,7.67
2018-12-29T11:51:01.204Z,8.52
2018-12-29T11:53:32.737Z,8.32
2018-12-29T11:56:01.841Z,7.80
2018-12-29T11:58:32.358Z,7.09
2018-12-29T12:01:01.506Z,7.47
2018-12-29T12:03:32.145Z,6.95
2018-12-29T12:06:03.604Z,6.54
2018-12-29T12:08:37.122Z,5.92
2018-12-29T12:11:06.252Z,6.32
2018-12-29T12:13:35.515Z,6.23
2018-12-29T12:16:04.640Z,6.37
2018-12-29T12:18:33.956Z,6.06
2018-12-29T12:21:04.935Z,6.42
2018-12-29T12:23:34.046Z,6.52
2018-12-29T12:26:03.804Z,6.47
2018-12-29T12:28:32.927Z,6.83
2018-12-29T12:31:08.053Z,7.03
2018-12-29T12:33:37.490Z,7.24
2018-12-29T12:36:06.722Z,6.97
2018-12-29T12:38:37.719Z,7.19
2018-12-29T12:41:08.230Z,6.60
2018-12-29T12:43:40.181Z,7.48
2018-12-29T12:46:10.672Z,7.15
2018-12-29T12:48:41.144Z,6.36
2018-12-29T12:51:13.390Z,7.05
2018-12-29T12:53:46.641Z,7.88
2018-12-29T12:56:19.391Z,7.52
2018-12-29T12:58:48.912Z,8.12
2018-12-29T13:01:19.412Z,7.60
2018-12-29T13:03:50.314Z,7.42
2018-12-29T13:06:19.470Z,6.70
2018-12-29T13:08:55.777Z,6.64
2018-12-29T13:11:25.353Z,6.97
2018-12-29T13:13:55.942Z,6.65
2018-12-29T13:16:25.110Z,6.22
2018-12-29T13:18:54.300Z,5.64
2018-12-29T13:21:23.492Z,6.48
2018-12-29T13:23:54.425Z,5.62
2018-12-29T13:26:23.540Z,5.21
2018-12-29T13:28:53.735Z,5.02
2018-12-29T13:31:22.963Z,5.30
2018-12-29T13:33:53.409Z,5.90
2018-12-29T13:36:27.784Z,5.67
2018-12-29T13:38:56.908Z,5.60
2018-12-29T13:41:26.131Z,5.27
2018-12-29T13:43:55.269Z,5.69
2018-12-29T13:46:24.387Z,5.28
2018-12-29T13:48:53.496Z,5.85
2018-12-29T13:51:23.690Z,6.20
2018-12-29T13:53:52.885Z,6.11
2018-12-29T13:56:24.074Z,6.21
2018-12-29T13:58:58.432Z,5.86
2018-12-29T14:01:27.519Z,5.03
2018-12-29T14:03:59.976Z,5.85
2018-12-29T14:06:29.094Z,6.21
2018-12-29T14:09:00.608Z,5.88
2018-12-29T14:11:30.927Z,5.72
2018-12-29T14:14:01.194Z,5.67
2018-12-29T14:16:32.898Z,6.11
2018-12-29T14:19:03.646Z,5.81
2018-12-29T14:21:37.282Z,6.01
2018-12-29T14:24:11.042Z,5.87
2018-12-29T14:26:41.530Z,6.08
2018-12-29T14:29:14.379Z,6.59
2018-12-29T14:31:43.442Z,6.51
2018-12-29T14:34:12.552Z,6.05
2018-12-29T14:36:42.769Z,6.73
2018-12-29T14:39:15.448Z,6.39
2018-12-29T14:41:46.180Z,6.82
2018-12-29T14:44:21.385Z,6.99
2018-12-29T14:46:50.557Z,6.64
2018-12-29T14:49:19.674Z,6.74
2018-12-29T14:51:53.530Z,6.91
2018-12-29T14:54:22.760Z,6.62
2018-12-29T14:56:51.872Z,6.67
2018-12-29T14:59:23.825Z,6.85
2018-12-29T15:01:52.945Z,6.61
2018-12-29T15:04:22.077Z,6.56
2018-12-29T15:06:51.202Z,7.17
2018-12-29T15:09:22.168Z,6.81
2018-12-29T15:11:51.701Z,6.97
2018-12-29T15:14:23.313Z,7.09
2018-12-29T15:16:54.454Z,6.88
2018-12-29T15:19:24.628Z,7.00
2018-12-29T15:21:53.799Z,6.83
2018-12-29T15:24:24.439Z,7.16
2018-12-29T15:26:53.553Z,7.57
2018-12-29T15:29:25.475Z,7.73
2018-12-29T15:31:57.429Z,8.73
2018-12-29T15:34:31.477Z,8.79
2018-12-29T15:37:06.314Z,8.63
2018-12-29T15:39:38.749Z,8.14
2018-12-29T15:42:09.190Z,8.36
2018-12-29T15:44:39.917Z,8.31
2018-12-29T15:47:11.410Z,7.97
2018-12-29T15:49:40.594Z,7.96
2018-12-29T15:52:11.589Z,8.44
2018-12-29T15:54:44.208Z,7.55
2018-12-29T15:57:17.662Z,7.44
2018-12-29T15:59:44.261Z,7.26
2018-12-29T16:02:13.587Z,7.46
2018-12-29T16:04:43.434Z,6.94
2018-12-29T16:07:12.538Z,7.18
2018-12-29T16:09:41.822Z,7.09
2018-12-29T16:12:11.507Z,7.44
2018-12-29T16:14:41.091Z,8.17
2018-12-29T16:17:10.192Z,7.84
2018-12-29T16:19:41.013Z,8.37
2018-12-29T16:22:12.920Z,8.14
2018-12-29T16:24:42.050Z,7.77
2018-12-29T16:27:13.403Z,8.55
2018-12-29T16:29:46.104Z,8.29
2018-12-29T16:32:15.189Z,8.60
2018-12-29T16:34:45.796Z,7.88
2018-12-29T16:37:14.959Z,8.56
2018-12-29T16:39:44.382Z,8.58
2018-12-29T16:42:13.498Z,7.64
2018-12-29T16:44:42.639Z,6.94
2018-12-29T16:47:12.961Z,7.00
2018-12-29T16:49:42.560Z,6.31
2018-12-29T16:52:12.102Z,6.42
2018-12-29T16:54:44.034Z,6.64
2018-12-29T16:57:16.703Z,5.63
2018-12-29T16:59:45.808Z,5.43
2018-12-29T17:02:16.336Z,5.08
2018-12-29T17:04:48.112Z,5.62
2018-12-29T17:07:19.166Z,6.27
2018-12-29T17:09:52.736Z,6.18
2018-12-29T17:12:23.465Z,6.38
2018-12-29T17:14:59.359Z,7.18
2018-12-29T17:17:28.529Z,7.33
2018-12-29T17:19:57.613Z,7.02
2018-12-29T17:22:32.283Z,6.92
2018-12-29T17:25:02.885Z,7.14
2018-12-29T17:27:34.719Z,7.06
2018-12-29T17:30:03.832Z,7.51
2018-12-29T17:32:34.040Z,6.28
2018-12-29T17:35:03.162Z,6.82
2018-12-29T17:37:34.781Z,6.60
2018-12-29T17:40:05.668Z,6.63
2018-12-29T17:42:34.872Z,6.76
2018-12-29T17:45:06.011Z,6.46
2018-12-29T17:47:35.279Z,6.19
2018-12-29T17:50:04.495Z,6.28
2018-12-29T17:52:35.434Z,6.15
2018-12-29T17:55:13.995Z,6.23
2018-12-29T17:57:44.172Z,6.00
2018-12-29T18:00:13.265Z,6.23
2018-12-29T18:02:42.409Z,5.74
2018-12-29T18:05:15.140Z,5.59
2018-12-29T18:07:47.114Z,5.67
2018-12-29T18:10:16.619Z,5.63
2018-12-29T18:12:46.760Z,5.40
2018-12-29T18:15:18.016Z,5.95
2018-12-29T18:17:47.301Z,5.38
2018-12-29T18:20:18.951Z,5.47
2018-12-29T18:22:48.039Z,5.22
2018-12-29T18:25:17.170Z,5.06
2018-12-29T18:27:51.959Z,5.23
2018-12-29T18:30:21.079Z,5.55
2018-12-29T18:32:50.255Z,5.59
2018-12-29T18:35:19.404Z,5.19
2018-12-29T18:37:49.490Z,5.41
2018-12-29T18:40:18.960Z,5.61
2018-12-29T18:42:48.537Z,5.23
2018-12-29T18:45:19.247Z,5.07
2018-12-29T18:47:48.347Z,4.92
2018-12-29T18:50:17.458Z,4.80
2018-12-29T18:52:46.586Z,4.61
2018-12-29T18:55:17.067Z,4.86
2018-12-29T18:57:47.022Z,5.47
2018-12-29T19:00:16.454Z,4.96
2018-12-29T19:02:50.898Z,5.19
2018-12-29T19:05:20.109Z,5.20
2018-12-29T19:07:50.442Z,5.06
2018-12-29T19:10:20.539Z,4.89
2018-12-29T19:12:54.930Z,4.90
2018-12-29T19:15:25.623Z,4.99
2018-12-29T19:17:59.593Z,5.58
2018-12-29T19:20:29.028Z,6.06
2018-12-29T19:23:04.394Z,5.74
2018-12-29T19:25:33.561Z,5.95
2018-12-29T19:28:03.331Z,6.07
2018-12-29T19:30:32.715Z,5.95
2018-12-29T19:33:02.264Z,5.70
2018-12-29T19:35:35.280Z,5.92
2018-12-29T19:38:09.190Z,5.90
2018-12-29T19:40:43.147Z,5.49
2018-12-29T19:43:12.810Z,5.36
2018-12-29T19:45:41.882Z,5.51
2018-12-29T19:48:11.378Z,5.94
2018-12-29T19:50:43.991Z,5.23
2018-12-29T19:53:13.492Z,5.69
2018-12-29T19:55:45.082Z,5.27
2018-12-29T19:58:14.189Z,5.21
2018-12-29T20:00:43.288Z,4.74
2018-12-29T20:03:14.320Z,4.50
2018-12-29T20:05:48.212Z,4.52
2018-12-29T20:08:17.389Z,4.48
2018-12-29T20:10:50.151Z,4.49
2018-12-29T20:13:22.049Z,4.42
2018-12-29T20:16:03.452Z,4.15
2018-12-29T20:18:32.703Z,4.22
2018-12-29T20:21:06.075Z,4.25
2018-12-29T20:23:37.454Z,4.23
2018-12-29T20:26:06.637Z,4.12
2018-12-29T20:28:38.822Z,4.07
2018-12-29T20:31:12.808Z,4.09
2018-12-29T20:33:42.002Z,4.02
2018-12-29T20:36:11.125Z,3.77
2018-12-29T20:38:40.218Z,4.05
2018-12-29T20:41:09.637Z,4.12
2018-12-29T20:43:43.630Z,4.16
2018-12-29T20:46:13.845Z,3.94
2018-12-29T20:48:44.770Z,3.94
2018-12-29T20:51:13.923Z,4.18
2018-12-29T20:53:48.603Z,3.98
2018-12-29T20:56:17.770Z,4.04
2018-12-29T20:58:51.374Z,3.84
2018-12-29T21:01:25.011Z,3.79
2018-12-29T21:03:54.117Z,3.79
2018-12-29T21:06:24.363Z,3.67
2018-12-29T21:08:58.287Z,3.75
2018-12-29T21:11:27.670Z,3.78
2018-12-29T21:13:56.802Z,3.92
2018-12-29T21:16:33.606Z,4.06
2018-12-29T21:19:05.088Z,4.23
2018-12-29T21:21:34.188Z,4.09
2018-12-29T21:24:03.262Z,4.25
2018-12-29T21:26:32.371Z,4.32
2018-12-29T21:29:03.132Z,4.27
2018-12-29T21:31:40.490Z,4.59
2018-12-29T21:34:09.575Z,4.85
2018-12-29T21:36:38.704Z,5.33
2018-12-29T21:39:11.540Z,5.40
2018-12-29T21:41:40.689Z,5.16
2018-12-29T21:44:09.787Z,5.41
2018-12-29T21:46:38.897Z,5.02
2018-12-29T21:49:08.199Z,5.18
2018-12-29T21:51:38.380Z,5.11
2018-12-29T21:54:07.977Z,5.12
2018-12-29T21:56:37.048Z,5.03
2018-12-29T21:59:06.138Z,5.01
2018-12-29T22:01:35.238Z,4.91
2018-12-29T22:04:05.836Z,4.98
2018-12-29T22:06:35.331Z,5.01
2018-12-29T22:09:07.747Z,4.95
2018-12-29T22:11:37.950Z,5.00
2018-12-29T22:14:08.930Z,5.11
2018-12-29T22:16:44.625Z,5.32
2018-12-29T22:19:17.883Z,5.42
2018-12-29T22:22:04.163Z,5.11
2018-12-29T22:24:35.152Z,4.93
2018-12-29T22:27:04.286Z,5.28
2018-12-29T22:29:35.092Z,5.19
2018-12-29T22:32:04.563Z,5.32
2018-12-29T22:34:33.733Z,5.55
2018-12-29T22:37:03.068Z,5.71
2018-12-29T22:39:32.442Z,5.41
2018-12-29T22:42:02.628Z,5.63
2018-12-29T22:44:34.200Z,5.54
2018-12-29T22:47:03.311Z,5.88
2018-12-29T22:49:32.410Z,5.58
2018-12-29T22:52:01.499Z,5.82
2018-12-29T22:54:30.675Z,6.09
2018-12-29T22:56:59.773Z,6.08
2018-12-29T22:59:31.596Z,5.87
2018-12-29T23:02:01.121Z,6.16
2018-12-29T23:04:31.905Z,6.26
2018-12-29T23:07:02.094Z,6.36
2018-12-29T23:09:34.839Z,6.19
2018-12-29T23:12:06.421Z,6.30
2018-12-29T23:14:40.727Z,5.66
2018-12-29T23:17:13.039Z,5.92
2018-12-29T23:19:42.138Z,6.19
2018-12-29T23:22:11.236Z,6.19
2018-12-29T23:24:40.392Z,6.14
2018-12-29T23:27:10.972Z,5.81
2018-12-29T23:29:43.109Z,5.91
2018-12-29T23:32:15.532Z,6.23
2018-12-29T23:34:45.972Z,6.08
2018-12-29T23:37:17.507Z,5.90
2018-12-29T23:39:46.593Z,6.01
2018-12-29T23:42:15.685Z,6.03
2018-12-29T23:44:44.786Z,6.18
2018-12-29T23:47:15.982Z,6.49
2018-12-29T23:49:45.094Z,6.85
2018-12-29T23:52:14.648Z,6.51
2018-12-29T23:54:46.927Z,6.72
2018-12-29T23:57:23.528Z,6.34
2018-12-29T23:59:53.064Z,6.16
